Wetterdaten: Woche 07.11.16 - 13.11.16 (KW45)
Datum Zeit Temperatur Luftfeuchte Luftdruck Niederschlag Windrichtung Sonnenschein Solar Wind
07.11.2016 00:00 1,9 C 98 % 1003,7 hPa 0,0 l/m W-SW 0,00 h 0 W/m 1,2 km/h (1 Bft)
07.11.2016 01:00 1,8 C 98 % 1003,9 hPa 0,0 l/m W-SW 0,00 h 0 W/m 3,2 km/h (1 Bft)
07.11.2016 02:00 1,7 C 98 % 1004,2 hPa 0,0 l/m N 0,00 h 0 W/m 0,0 km/h (0 Bft)
07.11.2016 03:00 2,0 C 98 % 1004,2 hPa 0,0 l/m W-SW 0,00 h 0 W/m 0,4 km/h (0 Bft)
07.11.2016 04:00 1,7 C 98 % 1004,4 hPa 0,4 l/m W-NW 0,00 h 0 W/m 4,7 km/h (1 Bft)
07.11.2016 05:00 1,0 C 98 % 1005,2 hPa 0,0 l/m W-NW 0,00 h 0 W/m 5,0 km/h (1 Bft)
07.11.2016 06:00 0,5 C 98 % 1005,9 hPa 0,0 l/m N 0,00 h 0 W/m 0,0 km/h (0 Bft)
07.11.2016 07:00 0,4 C 98 % 1006,3 hPa 0,0 l/m N 0,00 h 9 W/m 0,0 km/h (0 Bft)
07.11.2016 08:00 0,5 C 98 % 1006,8 hPa 0,0 l/m N 0,00 h 23 W/m 0,0 km/h (0 Bft)
07.11.2016 09:00 0,9 C 98 % 1007,1 hPa 0,0 l/m W-SW 0,75 h 191 W/m 4,9 km/h (1 Bft)
07.11.2016 10:00 1,2 C 98 % 1007,5 hPa 1,0 l/m SW 0,42 h 204 W/m 9,0 km/h (2 Bft)
07.11.2016 11:00 2,2 C 98 % 1007,9 hPa 1,8 l/m SW 0,58 h 242 W/m 10,1 km/h (2 Bft)
07.11.2016 12:00 3,1 C 96 % 1007,9 hPa 0,4 l/m SW 0,75 h 427 W/m 13,0 km/h (3 Bft)
07.11.2016 13:00 4,0 C 89 % 1007,7 hPa 0,0 l/m SW 0,75 h 332 W/m 12,5 km/h (3 Bft)
07.11.2016 14:00 3,4 C 87 % 1007,8 hPa 0,0 l/m W-NW 0,50 h 179 W/m 10,1 km/h (2 Bft)
07.11.2016 15:00 3,4 C 88 % 1008,1 hPa 0,2 l/m W-SW 0,25 h 99 W/m 5,9 km/h (2 Bft)
07.11.2016 16:00 3,0 C 90 % 1008,3 hPa 0,0 l/m W-NW 0,17 h 20 W/m 4,2 km/h (1 Bft)
07.11.2016 17:00 1,6 C 93 % 1008,7 hPa 0,0 l/m N 0,00 h 0 W/m 0,7 km/h (0 Bft)
07.11.2016 18:00 1,2 C 95 % 1009,2 hPa 0,0 l/m N 0,00 h 0 W/m 0,0 km/h (0 Bft)
07.11.2016 19:00 1,2 C 95 % 1009,3 hPa 0,0 l/m W-SW 0,00 h 0 W/m 6,2 km/h (2 Bft)
07.11.2016 20:00 0,8 C 96 % 1009,5 hPa 0,0 l/m W-SW 0,00 h 0 W/m 5,1 km/h (1 Bft)
07.11.2016 21:00 0,5 C 96 % 1009,5 hPa 0,0 l/m W-SW 0,00 h 0 W/m 1,3 km/h (1 Bft)
07.11.2016 22:00 0,5 C 96 % 1009,4 hPa 0,0 l/m W-SW 0,00 h 0 W/m 3,7 km/h (1 Bft)
07.11.2016 23:00 0,3 C 97 % 1009,2 hPa 0,0 l/m W-SW 0,00 h 0 W/m 4,3 km/h (1 Bft)
08.11.2016 00:00 -0,1 C 97 % 1009,2 hPa 0,0 l/m N 0,00 h 0 W/m 0,0 km/h (0 Bft)
08.11.2016 01:00 -0,1 C 97 % 1009,0 hPa 0,0 l/m N 0,00 h 0 W/m 1,5 km/h (1 Bft)
08.11.2016 02:00 -0,2 C 97 % 1008,9 hPa 0,0 l/m W-SW 0,00 h 0 W/m 3,2 km/h (1 Bft)
08.11.2016 03:00 -0,3 C 97 % 1008,7 hPa 0,0 l/m W-SW 0,00 h 0 W/m 2,7 km/h (1 Bft)
08.11.2016 04:00 -0,4 C 96 % 1008,7 hPa 0,0 l/m W-SW 0,00 h 0 W/m 0,8 km/h (0 Bft)
08.11.2016 05:00 -0,5 C 96 % 1008,8 hPa 0,0 l/m W-SW 0,00 h 0 W/m 4,4 km/h (1 Bft)
08.11.2016 06:00 -0,7 C 96 % 1008,8 hPa 0,0 l/m W-SW 0,00 h 0 W/m 8,6 km/h (2 Bft)
08.11.2016 07:00 -0,9 C 96 % 1009,1 hPa 0,0 l/m W-SW 0,00 h 17 W/m 5,9 km/h (2 Bft)
08.11.2016 08:00 -0,8 C 96 % 1009,5 hPa 0,0 l/m W-SW 0,25 h 75 W/m 4,9 km/h (1 Bft)
08.11.2016 09:00 -0,2 C 95 % 1010,0 hPa 0,0 l/m SW 0,00 h 103 W/m 8,3 km/h (2 Bft)
08.11.2016 10:00 0,7 C 93 % 1010,2 hPa 0,0 l/m SW 0,17 h 136 W/m 10,2 km/h (2 Bft)
08.11.2016 11:00 1,6 C 91 % 1010,1 hPa 0,0 l/m SW 0,75 h 319 W/m 11,8 km/h (2 Bft)
08.11.2016 12:00 2,0 C 89 % 1009,9 hPa 0,0 l/m W-SW 0,00 h 172 W/m 10,5 km/h (2 Bft)
08.11.2016 13:00 2,4 C 88 % 1009,8 hPa 0,0 l/m SW 0,00 h 166 W/m 10,9 km/h (2 Bft)
08.11.2016 14:00 2,4 C 88 % 1009,8 hPa 0,0 l/m SW 0,25 h 151 W/m 9,1 km/h (2 Bft)
08.11.2016 15:00 2,6 C 85 % 1009,9 hPa 0,0 l/m W-SW 0,25 h 94 W/m 9,5 km/h (2 Bft)
08.11.2016 16:00 2,2 C 87 % 1010,2 hPa 0,0 l/m W 0,08 h 20 W/m 1,6 km/h (1 Bft)
08.11.2016 17:00 1,9 C 88 % 1010,7 hPa 0,0 l/m W 0,00 h 0 W/m 6,4 km/h (2 Bft)
08.11.2016 18:00 1,5 C 89 % 1011,3 hPa 0,0 l/m W-SW 0,00 h 0 W/m 11,4 km/h (2 Bft)
08.11.2016 19:00 1,1 C 91 % 1011,4 hPa 0,0 l/m W-SW 0,00 h 0 W/m 6,4 km/h (2 Bft)
08.11.2016 20:00 0,9 C 93 % 1011,5 hPa 0,0 l/m W-SW 0,00 h 0 W/m 6,4 km/h (2 Bft)
08.11.2016 21:00 1,2 C 94 % 1011,5 hPa 0,0 l/m W-SW 0,00 h 0 W/m 10,9 km/h (2 Bft)
08.11.2016 22:00 1,3 C 94 % 1011,7 hPa 0,0 l/m W 0,00 h 0 W/m 7,1 km/h (2 Bft)
08.11.2016 23:00 1,2 C 94 % 1011,6 hPa 0,0 l/m W 0,00 h 0 W/m 8,2 km/h (2 Bft)
09.11.2016 00:00 0,9 C 95 % 1011,3 hPa 0,0 l/m W-SW 0,00 h 0 W/m 7,5 km/h (2 Bft)
09.11.2016 01:00 0,5 C 95 % 1010,9 hPa 0,0 l/m W-SW 0,00 h 0 W/m 10,9 km/h (2 Bft)
09.11.2016 02:00 0,3 C 94 % 1010,5 hPa 0,0 l/m SW 0,00 h 0 W/m 8,4 km/h (2 Bft)
09.11.2016 03:00 -0,1 C 95 % 1009,7 hPa 0,0 l/m SW 0,00 h 0 W/m 9,3 km/h (2 Bft)
09.11.2016 04:00 -0,2 C 95 % 1008,9 hPa 0,0 l/m SW 0,00 h 0 W/m 6,4 km/h (2 Bft)
09.11.2016 05:00 -0,3 C 96 % 1008,2 hPa 0,0 l/m SW 0,00 h 0 W/m 4,8 km/h (1 Bft)
09.11.2016 06:00 -0,4 C 96 % 1007,4 hPa 0,0 l/m SW 0,00 h 0 W/m 3,9 km/h (1 Bft)
09.11.2016 07:00 -0,4 C 96 % 1007,0 hPa 0,0 l/m SW 0,25 h 22 W/m 1,5 km/h (1 Bft)
09.11.2016 08:00 -0,1 C 96 % 1006,6 hPa 0,0 l/m SW 0,17 h 85 W/m 2,1 km/h (1 Bft)
09.11.2016 09:00 0,8 C 96 % 1006,5 hPa 0,0 l/m N 0,00 h 123 W/m 0,0 km/h (0 Bft)
09.11.2016 10:00 2,0 C 93 % 1006,5 hPa 0,0 l/m SW 0,67 h 235 W/m 6,6 km/h (2 Bft)
09.11.2016 11:00 3,2 C 85 % 1005,8 hPa 0,0 l/m S-SW 1,00 h 273 W/m 12,2 km/h (2 Bft)
09.11.2016 12:00 3,7 C 83 % 1005,0 hPa 0,0 l/m SW 0,50 h 218 W/m 12,8 km/h (3 Bft)
09.11.2016 13:00 3,9 C 80 % 1004,5 hPa 0,0 l/m SW 0,00 h 148 W/m 9,4 km/h (2 Bft)
09.11.2016 14:00 3,3 C 78 % 1004,2 hPa 0,0 l/m S-SW 0,00 h 95 W/m 9,1 km/h (2 Bft)
09.11.2016 15:00 2,9 C 83 % 1003,8 hPa 0,0 l/m SW 0,00 h 45 W/m 10,9 km/h (2 Bft)
09.11.2016 16:00 1,8 C 91 % 1003,5 hPa 0,0 l/m S-SW 0,00 h 13 W/m 6,8 km/h (2 Bft)
09.11.2016 17:00 1,3 C 93 % 1004,0 hPa 0,2 l/m S-SW 0,00 h 0 W/m 2,7 km/h (1 Bft)
09.11.2016 18:00 1,2 C 94 % 1004,2 hPa 0,2 l/m S-SW 0,00 h 0 W/m 12,1 km/h (2 Bft)
09.11.2016 19:00 1,2 C 96 % 1004,2 hPa 0,4 l/m SW 0,00 h 0 W/m 19,0 km/h (3 Bft)
09.11.2016 20:00 1,4 C 96 % 1004,5 hPa 0,2 l/m W-SW 0,00 h 0 W/m 20,6 km/h (4 Bft)
09.11.2016 21:00 2,5 C 97 % 1004,9 hPa 0,0 l/m W-SW 0,00 h 0 W/m 28,8 km/h (5 Bft)
09.11.2016 22:00 3,6 C 97 % 1005,2 hPa 0,0 l/m W-SW 0,00 h 0 W/m 30,9 km/h (5 Bft)
09.11.2016 23:00 4,2 C 96 % 1005,4 hPa 0,0 l/m W-SW 0,00 h 0 W/m 31,8 km/h (5 Bft)
10.11.2016 00:00 4,5 C 94 % 1005,8 hPa 0,0 l/m W-SW 0,00 h 0 W/m 35,1 km/h (5 Bft)
10.11.2016 01:00 4,5 C 92 % 1006,1 hPa 0,0 l/m W-SW 0,00 h 0 W/m 33,9 km/h (5 Bft)
10.11.2016 02:00 4,4 C 91 % 1006,3 hPa 0,0 l/m W-SW 0,00 h 0 W/m 29,9 km/h (5 Bft)
10.11.2016 03:00 4,3 C 91 % 1006,0 hPa 0,0 l/m W-SW 0,00 h 0 W/m 30,2 km/h (5 Bft)
10.11.2016 04:00 3,9 C 93 % 1005,8 hPa 3,0 l/m W-SW 0,00 h 0 W/m 25,8 km/h (4 Bft)
10.11.2016 05:00 3,1 C 95 % 1006,1 hPa 0,2 l/m W-SW 0,00 h 0 W/m 22,6 km/h (4 Bft)
10.11.2016 06:00 2,9 C 96 % 1006,7 hPa 0,0 l/m W-SW 0,00 h 0 W/m 22,1 km/h (4 Bft)
10.11.2016 07:00 2,9 C 96 % 1007,8 hPa 0,0 l/m SW 0,00 h 16 W/m 16,2 km/h (3 Bft)
10.11.2016 08:00 3,4 C 97 % 1008,8 hPa 0,0 l/m W-SW 0,00 h 41 W/m 19,6 km/h (3 Bft)
10.11.2016 09:00 4,1 C 96 % 1009,5 hPa 0,2 l/m W-SW 0,00 h 99 W/m 20,5 km/h (4 Bft)
10.11.2016 10:00 4,8 C 94 % 1010,0 hPa 0,0 l/m W-SW 0,42 h 205 W/m 20,0 km/h (4 Bft)
10.11.2016 11:00 5,4 C 91 % 1010,1 hPa 0,0 l/m W-SW 0,58 h 207 W/m 22,0 km/h (4 Bft)
10.11.2016 12:00 5,8 C 89 % 1009,7 hPa 0,0 l/m W-SW 0,08 h 162 W/m 21,0 km/h (4 Bft)
10.11.2016 13:00 6,2 C 87 % 1009,5 hPa 0,0 l/m W-SW 0,00 h 179 W/m 23,5 km/h (4 Bft)
10.11.2016 14:00 6,3 C 87 % 1009,4 hPa 0,0 l/m W-SW 0,00 h 137 W/m 16,2 km/h (3 Bft)
10.11.2016 15:00 5,9 C 88 % 1009,3 hPa 0,0 l/m W-SW 0,00 h 65 W/m 21,2 km/h (4 Bft)
10.11.2016 16:00 5,2 C 94 % 1009,3 hPa 0,6 l/m W-SW 0,00 h 11 W/m 13,2 km/h (3 Bft)
10.11.2016 17:00 4,5 C 94 % 1009,4 hPa 0,2 l/m W-SW 0,00 h 0 W/m 13,6 km/h (3 Bft)
10.11.2016 18:00 4,5 C 95 % 1009,5 hPa 0,0 l/m W-SW 0,00 h 0 W/m 16,8 km/h (3 Bft)
10.11.2016 19:00 4,6 C 95 % 1009,5 hPa 0,0 l/m W-SW 0,00 h 0 W/m 20,8 km/h (4 Bft)
10.11.2016 20:00 4,3 C 94 % 1009,6 hPa 0,2 l/m SW 0,00 h 0 W/m 16,1 km/h (3 Bft)
10.11.2016 21:00 3,9 C 95 % 1009,3 hPa 0,2 l/m SW 0,00 h 0 W/m 16,1 km/h (3 Bft)
10.11.2016 22:00 3,7 C 96 % 1008,8 hPa 1,4 l/m SW 0,00 h 0 W/m 18,5 km/h (3 Bft)
10.11.2016 23:00 3,5 C 97 % 1008,3 hPa 1,6 l/m SW 0,00 h 0 W/m 19,0 km/h (3 Bft)
11.11.2016 00:00 3,3 C 97 % 1007,9 hPa 0,6 l/m SW 0,00 h 0 W/m 19,3 km/h (3 Bft)
11.11.2016 01:00 3,3 C 97 % 1007,5 hPa 0,0 l/m SW 0,00 h 0 W/m 16,9 km/h (3 Bft)
11.11.2016 02:00 3,9 C 98 % 1006,8 hPa 0,0 l/m SW 0,00 h 0 W/m 16,0 km/h (3 Bft)
11.11.2016 03:00 4,2 C 98 % 1006,0 hPa 2,6 l/m SW 0,00 h 0 W/m 12,2 km/h (2 Bft)
11.11.2016 04:00 4,0 C 98 % 1005,7 hPa 1,2 l/m W-SW 0,00 h 0 W/m 16,4 km/h (3 Bft)
11.11.2016 05:00 4,0 C 98 % 1006,4 hPa 0,8 l/m W 0,00 h 0 W/m 16,1 km/h (3 Bft)
11.11.2016 06:00 3,8 C 98 % 1007,4 hPa 0,0 l/m W-SW 0,00 h 0 W/m 13,6 km/h (3 Bft)
11.11.2016 07:00 3,6 C 97 % 1008,8 hPa 0,0 l/m W-SW 0,00 h 10 W/m 19,4 km/h (3 Bft)
11.11.2016 08:00 3,5 C 96 % 1010,3 hPa 0,0 l/m W 0,08 h 46 W/m 21,3 km/h (4 Bft)
11.11.2016 09:00 4,1 C 94 % 1011,0 hPa 0,0 l/m W-SW 0,67 h 185 W/m 17,8 km/h (3 Bft)
11.11.2016 10:00 4,9 C 91 % 1011,9 hPa 0,0 l/m W-SW 0,25 h 201 W/m 23,4 km/h (4 Bft)
11.11.2016 11:00 5,8 C 86 % 1012,6 hPa 0,0 l/m W 0,75 h 372 W/m 23,9 km/h (4 Bft)
11.11.2016 12:00 6,0 C 84 % 1012,8 hPa 0,0 l/m W-NW 0,67 h 342 W/m 19,0 km/h (3 Bft)
11.11.2016 13:00 6,3 C 80 % 1012,9 hPa 0,0 l/m W-NW 0,67 h 320 W/m 24,4 km/h (4 Bft)
11.11.2016 14:00 5,4 C 84 % 1013,5 hPa 0,0 l/m W-NW 0,25 h 147 W/m 18,2 km/h (3 Bft)
11.11.2016 15:00 4,7 C 86 % 1014,4 hPa 0,0 l/m W-NW 0,00 h 51 W/m 14,5 km/h (3 Bft)
11.11.2016 16:00 4,1 C 88 % 1015,4 hPa 0,6 l/m W-NW 0,00 h 10 W/m 12,6 km/h (3 Bft)
11.11.2016 17:00 3,1 C 93 % 1016,7 hPa 0,0 l/m N-NW 0,00 h 0 W/m 10,1 km/h (2 Bft)
11.11.2016 18:00 2,7 C 94 % 1017,8 hPa 0,2 l/m N-NW 0,00 h 0 W/m 7,6 km/h (2 Bft)
11.11.2016 19:00 2,5 C 94 % 1018,6 hPa 0,2 l/m NW 0,00 h 0 W/m 8,1 km/h (2 Bft)
11.11.2016 20:00 2,2 C 95 % 1019,2 hPa 0,0 l/m N-NW 0,00 h 0 W/m 8,6 km/h (2 Bft)
11.11.2016 21:00 2,2 C 95 % 1019,9 hPa 0,0 l/m N-NW 0,00 h 0 W/m 7,6 km/h (2 Bft)
11.11.2016 22:00 2,1 C 95 % 1020,3 hPa 0,0 l/m N 0,00 h 0 W/m 5,9 km/h (2 Bft)
11.11.2016 23:00 1,8 C 95 % 1020,8 hPa 0,0 l/m N 0,00 h 0 W/m 5,9 km/h (2 Bft)
12.11.2016 00:00 1,7 C 95 % 1021,0 hPa 0,0 l/m N-NW 0,00 h 0 W/m 5,2 km/h (1 Bft)
12.11.2016 01:00 1,4 C 94 % 1020,9 hPa 0,0 l/m N 0,00 h 0 W/m 2,1 km/h (1 Bft)
12.11.2016 02:00 0,9 C 95 % 1021,4 hPa 0,0 l/m N-NW 0,00 h 0 W/m 1,5 km/h (1 Bft)
12.11.2016 03:00 0,5 C 94 % 1021,6 hPa 0,0 l/m N 0,00 h 0 W/m 0,0 km/h (0 Bft)
12.11.2016 04:00 0,1 C 95 % 1022,1 hPa 0,0 l/m N 0,00 h 0 W/m 0,0 km/h (0 Bft)
12.11.2016 05:00 0,3 C 95 % 1022,2 hPa 0,0 l/m N 0,00 h 0 W/m 0,0 km/h (0 Bft)
12.11.2016 06:00 0,3 C 96 % 1022,5 hPa 0,0 l/m N 0,00 h 0 W/m 1,5 km/h (1 Bft)
12.11.2016 07:00 0,3 C 96 % 1022,7 hPa 0,0 l/m N 0,00 h 11 W/m 0,0 km/h (0 Bft)
12.11.2016 08:00 0,5 C 96 % 1022,9 hPa 0,0 l/m N-NW 0,00 h 37 W/m 0,5 km/h (0 Bft)
12.11.2016 09:00 1,0 C 96 % 1023,0 hPa 0,0 l/m N-NW 0,00 h 77 W/m 4,3 km/h (1 Bft)
12.11.2016 10:00 1,4 C 96 % 1023,1 hPa 0,0 l/m N 0,00 h 74 W/m 0,4 km/h (0 Bft)
12.11.2016 11:00 2,0 C 93 % 1022,9 hPa 0,0 l/m N 0,00 h 129 W/m 2,7 km/h (1 Bft)
12.11.2016 12:00 2,8 C 90 % 1022,3 hPa 0,0 l/m O-NO 0,08 h 171 W/m 2,8 km/h (1 Bft)
12.11.2016 13:00 3,3 C 88 % 1022,0 hPa 0,0 l/m O-NO 0,25 h 165 W/m 2,0 km/h (1 Bft)
12.11.2016 14:00 3,4 C 86 % 1021,8 hPa 0,0 l/m O-NO 0,00 h 114 W/m 2,4 km/h (1 Bft)
12.11.2016 15:00 3,2 C 86 % 1022,1 hPa 0,0 l/m O-NO 0,00 h 47 W/m 5,6 km/h (1 Bft)
12.11.2016 16:00 2,9 C 85 % 1022,4 hPa 0,0 l/m O-NO 0,00 h 13 W/m 6,9 km/h (2 Bft)
12.11.2016 17:00 2,3 C 86 % 1022,5 hPa 0,0 l/m N 0,00 h 0 W/m 0,0 km/h (0 Bft)
12.11.2016 18:00 0,7 C 88 % 1022,7 hPa 0,0 l/m N 0,00 h 0 W/m 0,0 km/h (0 Bft)
12.11.2016 19:00 -0,3 C 90 % 1022,6 hPa 0,0 l/m N 0,00 h 0 W/m 0,0 km/h (0 Bft)
12.11.2016 20:00 -1,0 C 92 % 1022,7 hPa 0,0 l/m N 0,00 h 0 W/m 0,0 km/h (0 Bft)
12.11.2016 21:00 -1,4 C 93 % 1023,0 hPa 0,0 l/m N 0,00 h 0 W/m 0,0 km/h (0 Bft)
12.11.2016 22:00 -1,8 C 93 % 1022,9 hPa 0,0 l/m N 0,00 h 0 W/m 0,0 km/h (0 Bft)
12.11.2016 23:00 -2,0 C 94 % 1022,8 hPa 0,0 l/m N 0,00 h 0 W/m 0,9 km/h (0 Bft)
13.11.2016 00:00 -2,0 C 95 % 1022,7 hPa 0,0 l/m O-NO 0,00 h 0 W/m 3,5 km/h (1 Bft)
13.11.2016 01:00 -2,2 C 95 % 1023,0 hPa 0,0 l/m O-NO 0,00 h 0 W/m 3,7 km/h (1 Bft)
13.11.2016 02:00 -2,7 C 95 % 1023,1 hPa 0,0 l/m N 0,00 h 0 W/m 0,0 km/h (0 Bft)
13.11.2016 03:00 -2,9 C 96 % 1023,0 hPa 0,0 l/m N 0,00 h 0 W/m 0,0 km/h (0 Bft)
13.11.2016 04:00 -2,8 C 96 % 1023,2 hPa 0,0 l/m N 0,00 h 0 W/m 0,3 km/h (0 Bft)
13.11.2016 05:00 -2,4 C 96 % 1023,5 hPa 0,0 l/m N 0,00 h 0 W/m 0,9 km/h (0 Bft)
13.11.2016 06:00 -2,2 C 97 % 1023,7 hPa 0,0 l/m N 0,00 h 0 W/m 0,0 km/h (0 Bft)
13.11.2016 07:00 -2,1 C 97 % 1024,0 hPa 0,0 l/m N 0,00 h 9 W/m 1,1 km/h (0 Bft)
13.11.2016 08:00 -1,8 C 97 % 1024,6 hPa 0,0 l/m O-NO 0,00 h 40 W/m 0,1 km/h (0 Bft)
13.11.2016 09:00 -1,2 C 97 % 1025,1 hPa 0,0 l/m O-NO 0,00 h 82 W/m 3,3 km/h (1 Bft)
13.11.2016 10:00 -0,7 C 98 % 1025,4 hPa 0,0 l/m O-NO 0,00 h 65 W/m 5,3 km/h (1 Bft)
13.11.2016 11:00 -0,0 C 97 % 1025,2 hPa 0,0 l/m O 0,00 h 141 W/m 7,5 km/h (2 Bft)
13.11.2016 12:00 0,9 C 96 % 1024,8 hPa 0,0 l/m O 0,25 h 201 W/m 8,0 km/h (2 Bft)
13.11.2016 13:00 2,0 C 91 % 1024,5 hPa 0,0 l/m O-NO 0,42 h 190 W/m 9,3 km/h (2 Bft)
13.11.2016 14:00 1,9 C 90 % 1024,3 hPa 0,0 l/m NO 0,00 h 108 W/m 9,5 km/h (2 Bft)
13.11.2016 15:00 2,1 C 90 % 1024,3 hPa 0,0 l/m NO 0,67 h 106 W/m 9,7 km/h (2 Bft)
13.11.2016 16:00 1,9 C 89 % 1024,5 hPa 0,0 l/m O-NO 0,00 h 19 W/m 10,9 km/h (2 Bft)
13.11.2016 17:00 1,4 C 90 % 1025,1 hPa 0,0 l/m NO 0,00 h 0 W/m 10,9 km/h (2 Bft)
13.11.2016 18:00 1,2 C 91 % 1025,5 hPa 0,0 l/m O-NO 0,00 h 0 W/m 10,6 km/h (2 Bft)
13.11.2016 19:00 0,8 C 91 % 1025,7 hPa 0,0 l/m O-NO 0,00 h 0 W/m 11,4 km/h (2 Bft)
13.11.2016 20:00 0,5 C 92 % 1026,2 hPa 0,0 l/m NO 0,00 h 0 W/m 9,1 km/h (2 Bft)
13.11.2016 21:00 0,6 C 92 % 1026,8 hPa 0,0 l/m O-NO 0,00 h 0 W/m 9,7 km/h (2 Bft)
13.11.2016 22:00 0,4 C 91 % 1027,1 hPa 0,0 l/m O-NO 0,00 h 0 W/m 11,3 km/h (2 Bft)
13.11.2016 23:00 0,2 C 91 % 1027,3 hPa 0,0 l/m O-NO 0,00 h 0 W/m 12,4 km/h (3 Bft)
Min-Datum _ 13.11.16 09.11.16 09.11.16 - - - - 07.11.16
_ Min-Zeit 03:10 14:05 16:25 - - - - 00:00
Minimum _ -2,9 C 74 % 1003,3 hPa - - - - 0,0 km/h (0 Bft)
Max-Datum _ 11.11.16 07.11.16 13.11.16 10.11.16 - 07.11.16 11.11.16 09.11.16
_ Max-Zeit 12:20 10:30 23:55 04:45 - 09:10 12:10 23:50
Maximum _ 6,8 C 99 % 1027,5 hPa 3,0 l/m - 0,08 h 698 W/m 45,1 km/h
W (6 Bft)
Durchschnitt _ 1,8 C 93 % 1013,1 hPa #18,6 l/m W-SW #14:35 h 126 W/m 9,5 km/h (2 Bft)